Time;durP1;ratioP1;P1;durP2;ratioP2;P2;SDS_P1;SDS_P2;PMS_P1;PMS_P2;Temp;Humidity;BMP_temperature;BMP_pressure;BME280_temperature;BME280_humidity;BME280_pressure;Samples;Min_cycle;Max_cycle;Signal;HPM_P1;HPM_P2
2021/05/27 00:01:10;;;;;;;2.63;1.30;;;15.20;94.50;;;;;;5082242;28;20297;-74
2021/05/27 00:03:37;;;;;;;3.43;1.13;;;15.20;95.10;;;;;;5087871;28;20665;-73
2021/05/27 00:06:04;;;;;;;3.67;1.30;;;15.20;95.60;;;;;;5069947;28;20301;-72
2021/05/27 00:08:30;;;;;;;3.13;1.50;;;15.20;96.20;;;;;;5082348;28;20229;-69
2021/05/27 00:10:56;;;;;;;3.40;1.60;;;15.10;96.90;;;;;;5074638;28;20284;-71
2021/05/27 00:13:24;;;;;;;3.07;1.50;;;15.10;97.70;;;;;;5075298;28;20713;-72
2021/05/27 00:15:50;;;;;;;2.67;1.50;;;15.10;98.60;;;;;;5071309;28;20224;-72
2021/05/27 00:18:17;;;;;;;3.60;1.47;;;15.10;99.40;;;;;;5069528;28;20287;-72
2021/05/27 00:20:43;;;;;;;2.13;1.20;;;15.10;99.90;;;;;;5079087;28;20201;-72
2021/05/27 00:23:09;;;;;;;2.40;1.30;;;15.10;99.90;;;;;;5079676;28;20296;-73
2021/05/27 00:25:36;;;;;;;2.13;1.33;;;15.00;99.90;;;;;;5071683;28;20308;-72
2021/05/27 00:28:03;;;;;;;5.03;1.60;;;15.00;99.90;;;;;;5076242;28;20300;-72
2021/05/27 00:30:30;;;;;;;2.23;1.07;;;15.00;99.90;;;;;;5070267;28;20229;-72
2021/05/27 00:32:56;;;;;;;1.83;1.10;;;15.00;99.90;;;;;;5070532;28;20284;-73
2021/05/27 00:35:23;;;;;;;3.30;1.30;;;15.10;99.90;;;;;;5072213;28;20639;-73
2021/05/27 00:37:49;;;;;;;3.00;1.40;;;15.10;99.90;;;;;;5086753;28;20654;-72
2021/05/27 00:40:17;;;;;;;2.53;1.70;;;15.10;99.90;;;;;;5073493;28;20693;-72
2021/05/27 00:42:44;;;;;;;2.83;1.57;;;15.00;99.90;;;;;;5089738;28;20676;-72
2021/05/27 00:45:13;;;;;;;2.77;1.50;;;15.00;99.90;;;;;;5083216;28;20259;-73
2021/05/27 00:47:42;;;;;;;2.80;1.43;;;15.00;99.90;;;;;;5074748;28;20257;-72
2021/05/27 00:50:12;;;;;;;3.60;1.43;;;14.90;99.90;;;;;;5073774;28;20220;-72
2021/05/27 00:52:39;;;;;;;2.43;1.33;;;14.90;99.90;;;;;;5075912;28;20265;-73
2021/05/27 00:55:06;;;;;;;3.60;1.50;;;15.00;99.90;;;;;;5081414;28;20212;-72
2021/05/27 00:57:35;;;;;;;2.00;1.37;;;14.80;99.90;;;;;;5072973;28;20262;-72
2021/05/27 01:00:03;;;;;;;3.27;1.53;;;14.90;99.90;;;;;;5073299;28;20221;-72
2021/05/27 01:02:30;;;;;;;1.93;1.43;;;14.90;99.90;;;;;;5083039;28;20212;-72
2021/05/27 01:04:57;;;;;;;3.77;1.57;;;14.90;99.90;;;;;;5071985;28;20216;-73
2021/05/27 01:07:24;;;;;;;2.33;1.60;;;14.90;99.90;;;;;;5073914;28;20209;-71
2021/05/27 01:09:50;;;;;;;3.07;2.23;;;14.90;99.90;;;;;;5088657;28;20230;-70
2021/05/27 01:12:17;;;;;;;3.67;2.03;;;14.80;99.90;;;;;;5086138;28;20201;-72
2021/05/27 01:17:27;;;;;;;1.67;1.40;;;14.80;99.90;;;;;;5069067;28;20204;-72
2021/05/27 01:19:54;;;;;;;2.33;1.40;;;14.70;99.90;;;;;;5072573;28;20680;-73
2021/05/27 01:22:22;;;;;;;3.43;1.40;;;14.60;99.90;;;;;;5078007;28;20236;-72
2021/05/27 01:24:49;;;;;;;2.43;1.10;;;14.60;99.90;;;;;;5070810;28;20227;-72
2021/05/27 01:27:17;;;;;;;4.33;1.63;;;14.60;99.90;;;;;;5067890;28;20761;-72
2021/05/27 01:29:43;;;;;;;2.87;1.53;;;14.50;99.90;;;;;;5072160;28;20216;-72
2021/05/27 01:32:10;;;;;;;1.83;1.50;;;14.40;99.90;;;;;;5084182;28;20260;-73
2021/05/27 01:34:37;;;;;;;3.33;1.50;;;14.40;99.90;;;;;;5069457;28;20194;-73
2021/05/27 01:37:04;;;;;;;3.10;1.40;;;14.20;99.90;;;;;;5075088;28;20217;-72
2021/05/27 01:39:31;;;;;;;4.30;1.50;;;14.30;99.90;;;;;;5083022;28;20215;-72
2021/05/27 01:41:58;;;;;;;3.33;1.40;;;14.30;99.90;;;;;;5085220;28;20564;-72
2021/05/27 01:44:24;;;;;;;2.80;1.50;;;14.30;99.90;;;;;;5069979;28;20308;-72
2021/05/27 01:46:50;;;;;;;4.10;1.77;;;14.30;99.90;;;;;;5077123;28;20576;-72
2021/05/27 01:49:17;;;;;;;1.93;1.60;;;14.30;99.90;;;;;;5073684;28;20223;-72
2021/05/27 01:51:49;;;;;;;5.27;1.60;;;14.30;99.90;;;;;;5075160;28;20231;-73
2021/05/27 01:54:15;;;;;;;2.10;1.43;;;14.30;99.90;;;;;;5085172;28;20203;-72
2021/05/27 01:56:42;;;;;;;3.50;1.70;;;14.30;99.90;;;;;;5087384;28;20716;-72
2021/05/27 01:59:09;;;;;;;4.53;1.50;;;14.30;99.90;;;;;;5079389;28;20233;-72
2021/05/27 02:01:35;;;;;;;1.77;1.40;;;14.40;99.90;;;;;;5074629;28;20239;-72
2021/05/27 02:04:03;;;;;;;1.73;1.63;;;14.40;99.90;;;;;;5075104;28;20320;-72
2021/05/27 02:06:29;;;;;;;3.67;1.53;;;14.40;99.90;;;;;;5074726;28;20253;-73
2021/05/27 02:09:09;;;;;;;3.43;1.73;;;14.40;99.90;;;;;;5077479;28;20205;-73
2021/05/27 02:11:36;;;;;;;2.83;1.90;;;14.40;99.90;;;;;;5086901;28;20238;-72
2021/05/27 02:14:04;;;;;;;2.93;1.60;;;14.40;99.90;;;;;;5082347;28;20338;-73
2021/05/27 02:16:30;;;;;;;3.50;1.73;;;14.40;99.90;;;;;;5073460;28;20579;-72
2021/05/27 02:18:57;;;;;;;2.60;1.63;;;14.50;99.90;;;;;;5074156;28;20300;-72
2021/05/27 02:21:24;;;;;;;2.70;1.60;;;14.50;99.90;;;;;;5077002;28;20211;-71
2021/05/27 02:23:53;;;;;;;3.07;1.63;;;14.50;99.90;;;;;;5077423;28;20207;-72
2021/05/27 02:26:19;;;;;;;2.80;1.67;;;14.50;99.90;;;;;;5086790;28;20616;-72
2021/05/27 02:28:45;;;;;;;2.57;1.80;;;14.50;99.90;;;;;;5076355;28;20221;-72
2021/05/27 02:31:13;;;;;;;3.60;1.67;;;14.50;99.90;;;;;;5073675;28;20296;-72
2021/05/27 02:33:39;;;;;;;2.67;1.87;;;14.50;99.90;;;;;;5075190;28;20206;-72
2021/05/27 02:36:06;;;;;;;4.43;1.87;;;14.50;99.90;;;;;;5088179;28;20299;-72
2021/05/27 02:38:33;;;;;;;2.50;1.60;;;14.50;99.90;;;;;;5086663;28;20265;-72
2021/05/27 02:40:59;;;;;;;4.17;2.20;;;14.50;99.90;;;;;;5078872;28;20261;-72
2021/05/27 02:43:25;;;;;;;2.87;1.70;;;14.50;99.90;;;;;;5079518;28;20205;-73
2021/05/27 02:45:52;;;;;;;2.87;1.77;;;14.50;99.90;;;;;;5080170;28;20316;-73
2021/05/27 02:48:19;;;;;;;3.77;1.73;;;14.50;99.90;;;;;;5076364;28;20296;-72
2021/05/27 02:50:45;;;;;;;3.40;1.43;;;14.50;99.90;;;;;;5090327;28;20205;-73
2021/05/27 02:53:12;;;;;;;1.87;1.40;;;14.50;99.90;;;;;;5086429;28;20205;-73
2021/05/27 02:55:38;;;;;;;3.03;1.47;;;14.60;99.90;;;;;;5073150;28;20215;-72
2021/05/27 02:58:05;;;;;;;1.93;1.43;;;14.60;99.90;;;;;;5074198;28;20292;-73
2021/05/27 03:00:31;;;;;;;2.93;1.47;;;14.60;99.90;;;;;;5077094;28;20209;-72
2021/05/27 03:02:58;;;;;;;2.23;1.50;;;14.60;99.90;;;;;;5087154;28;20687;-73
2021/05/27 03:05:25;;;;;;;2.00;1.40;;;14.60;99.90;;;;;;5082086;28;20303;-73
2021/05/27 03:07:52;;;;;;;4.10;1.57;;;14.60;99.90;;;;;;5080216;28;20283;-73
2021/05/27 03:10:18;;;;;;;3.47;1.47;;;14.60;99.90;;;;;;5070760;28;20201;-73
2021/05/27 03:12:45;;;;;;;2.30;1.60;;;14.60;99.90;;;;;;5076732;28;20207;-72
2021/05/27 03:15:12;;;;;;;1.83;1.30;;;14.60;99.90;;;;;;5083086;28;20231;-73
2021/05/27 03:17:38;;;;;;;3.30;1.77;;;14.50;99.90;;;;;;5085889;28;20243;-74
2021/05/27 03:20:07;;;;;;;2.47;1.50;;;14.60;99.90;;;;;;5090382;28;20316;-75
2021/05/27 03:22:34;;;;;;;1.97;1.30;;;14.60;99.90;;;;;;5073700;28;20213;-73
2021/05/27 03:25:01;;;;;;;3.33;1.50;;;14.60;99.90;;;;;;5083070;28;20233;-73
2021/05/27 03:27:27;;;;;;;2.43;1.63;;;14.70;99.90;;;;;;5086669;28;20201;-73
2021/05/27 03:29:53;;;;;;;1.13;1.03;;;14.70;99.90;;;;;;5083376;28;20216;-73
2021/05/27 03:32:20;;;;;;;2.87;1.33;;;14.70;99.90;;;;;;5075850;28;20232;-73
2021/05/27 03:34:46;;;;;;;2.47;1.20;;;14.70;99.90;;;;;;5077316;28;20231;-72
2021/05/27 03:37:13;;;;;;;2.83;1.43;;;14.80;99.90;;;;;;5074953;28;21339;-72
2021/05/27 03:40:09;;;;;;;5.00;1.90;;;14.80;99.90;;;;;;5080636;28;20831;-74
2021/05/27 03:42:27;;;;;;;3.70;1.87;;;14.80;99.90;;;;;;5081775;28;20576;-73
2021/05/27 03:44:53;;;;;;;4.93;1.67;;;14.90;99.90;;;;;;5074718;28;20311;-72
2021/05/27 03:47:19;;;;;;;3.77;1.57;;;14.90;99.90;;;;;;5077208;28;20291;-73
2021/05/27 03:49:46;;;;;;;1.97;1.30;;;14.90;99.90;;;;;;5078561;28;20208;-73
2021/05/27 03:52:12;;;;;;;4.60;1.60;;;14.90;99.90;;;;;;5074041;28;20271;-72
2021/05/27 03:54:39;;;;;;;3.47;1.23;;;14.90;99.90;;;;;;5069775;28;20295;-72
2021/05/27 03:57:06;;;;;;;5.00;1.33;;;14.90;99.90;;;;;;5080836;28;20583;-72
2021/05/27 04:02:16;;;;;;;3.37;1.60;;;15.00;99.90;;;;;;5078538;28;20196;-72
2021/05/27 04:07:27;;;;;;;1.83;1.30;;;15.00;99.90;;;;;;5073030;28;20290;-73
2021/05/27 04:09:54;;;;;;;3.73;1.67;;;14.90;99.90;;;;;;5072017;28;20252;-74
2021/05/27 04:15:21;;;;;;;6.33;1.60;;;15.00;99.90;;;;;;5075896;28;20251;-72
2021/05/27 04:17:56;;;;;;;2.87;1.20;;;15.00;99.90;;;;;;5071468;28;20212;-73
2021/05/27 04:20:23;;;;;;;4.83;2.40;;;15.00;99.90;;;;;;5079780;28;20719;-72
2021/05/27 04:22:49;;;;;;;4.27;3.30;;;15.00;99.90;;;;;;5071786;28;20303;-73
2021/05/27 04:25:18;;;;;;;6.20;5.00;;;15.10;99.90;;;;;;5074118;28;20232;-72
2021/05/27 04:27:45;;;;;;;6.77;5.30;;;15.00;99.90;;;;;;5071337;28;20275;-73
2021/05/27 04:30:16;;;;;;;4.87;3.47;;;15.00;99.90;;;;;;5084637;28;20299;-73
2021/05/27 04:32:55;;;;;;;3.93;3.53;;;15.00;99.90;;;;;;5073247;28;20250;-72
2021/05/27 04:35:26;;;;;;;5.03;3.20;;;15.00;99.90;;;;;;5075664;28;20216;-70
2021/05/27 04:37:53;;;;;;;3.47;3.17;;;14.90;99.90;;;;;;5077081;28;20657;-73
2021/05/27 04:40:21;;;;;;;5.93;2.53;;;14.90;99.90;;;;;;5075434;28;20642;-73
2021/05/27 04:42:47;;;;;;;3.70;2.30;;;14.90;99.90;;;;;;5092129;28;20663;-73
2021/05/27 04:45:15;;;;;;;5.53;2.00;;;14.90;99.90;;;;;;5075168;28;20229;-73
2021/05/27 04:47:41;;;;;;;3.93;1.60;;;15.00;99.90;;;;;;5071022;28;20283;-73
2021/05/27 04:50:11;;;;;;;1.40;1.23;;;15.00;99.90;;;;;;5080892;28;20292;-72
2021/05/27 04:52:37;;;;;;;3.23;1.70;;;15.00;99.90;;;;;;5086074;28;20369;-73
2021/05/27 04:55:06;;;;;;;2.07;1.23;;;15.00;99.90;;;;;;5074298;28;20197;-73
2021/05/27 04:57:33;;;;;;;4.70;2.03;;;15.00;99.90;;;;;;5086686;28;20243;-72
2021/05/27 05:00:00;;;;;;;2.70;1.47;;;15.10;99.90;;;;;;5073621;28;20206;-72
2021/05/27 05:02:26;;;;;;;1.70;1.57;;;15.20;99.90;;;;;;5073876;28;20269;-73
2021/05/27 05:04:53;;;;;;;4.43;1.87;;;15.20;99.90;;;;;;5072002;28;20281;-73
2021/05/27 05:07:20;;;;;;;1.70;1.53;;;15.20;99.90;;;;;;5067897;28;20327;-74
2021/05/27 05:09:47;;;;;;;5.47;1.63;;;15.30;99.90;;;;;;5088275;28;20207;-73
2021/05/27 05:12:13;;;;;;;2.97;1.60;;;15.50;99.90;;;;;;5080559;28;20291;-73
2021/05/27 05:14:41;;;;;;;2.30;1.80;;;15.50;99.90;;;;;;5069706;28;20232;-73
2021/05/27 05:17:07;;;;;;;1.50;1.30;;;15.70;99.90;;;;;;5075347;28;20741;-72
2021/05/27 05:19:34;;;;;;;2.30;1.43;;;15.80;99.90;;;;;;5086094;28;20868;-72
2021/05/27 05:22:00;;;;;;;5.23;1.40;;;15.90;99.90;;;;;;5074785;28;20201;-73
2021/05/27 05:24:26;;;;;;;2.27;1.30;;;15.90;99.90;;;;;;5080735;28;20256;-72
2021/05/27 05:26:53;;;;;;;3.60;1.40;;;16.00;99.90;;;;;;5083598;28;20293;-71
2021/05/27 05:29:19;;;;;;;3.57;1.53;;;16.00;99.90;;;;;;5072789;28;20226;-74
2021/05/27 05:31:47;;;;;;;4.97;1.50;;;16.00;99.90;;;;;;5082131;28;20299;-72
2021/05/27 05:34:13;;;;;;;1.60;1.47;;;16.00;99.90;;;;;;5077755;28;20251;-72
2021/05/27 05:36:40;;;;;;;3.40;1.60;;;16.10;99.90;;;;;;5081459;28;20328;-72
2021/05/27 05:39:07;;;;;;;5.17;1.70;;;16.10;99.90;;;;;;5076047;28;20299;-73
2021/05/27 05:41:33;;;;;;;5.83;1.47;;;16.20;99.90;;;;;;5078691;28;20202;-72
2021/05/27 05:44:00;;;;;;;2.53;1.50;;;16.30;99.90;;;;;;5073794;28;20216;-73
2021/05/27 05:46:26;;;;;;;7.30;1.57;;;16.30;99.90;;;;;;5079919;28;20607;-73
2021/05/27 05:48:54;;;;;;;4.13;1.43;;;16.30;99.90;;;;;;5076231;28;20292;-72
2021/05/27 05:51:20;;;;;;;4.10;1.40;;;16.20;99.90;;;;;;5080523;28;20683;-71
2021/05/27 05:53:46;;;;;;;1.97;1.57;;;16.20;99.90;;;;;;5095294;28;20568;-72
2021/05/27 05:56:13;;;;;;;4.23;1.90;;;16.20;99.90;;;;;;5081819;28;20263;-72
2021/05/27 05:58:39;;;;;;;2.20;1.67;;;16.30;99.90;;;;;;5075957;28;20297;-71
2021/05/27 06:01:05;;;;;;;4.80;1.33;;;16.30;99.90;;;;;;5079490;28;20827;-73
2021/05/27 06:03:33;;;;;;;2.63;1.40;;;16.30;99.90;;;;;;5083778;28;20697;-73
2021/05/27 06:06:01;;;;;;;2.00;1.30;;;16.30;99.90;;;;;;5074328;28;20242;-73
2021/05/27 06:08:28;;;;;;;2.53;1.27;;;16.20;99.90;;;;;;5091934;28;20204;-73
2021/05/27 06:10:54;;;;;;;2.83;1.57;;;16.10;99.90;;;;;;5091182;28;20209;-75
2021/05/27 06:13:21;;;;;;;5.50;1.50;;;16.00;99.90;;;;;;5080532;28;20275;-71
2021/05/27 06:15:47;;;;;;;3.47;1.27;;;16.00;99.90;;;;;;5076512;28;20208;-71
2021/05/27 06:18:15;;;;;;;2.77;1.50;;;15.90;99.90;;;;;;5081420;28;20247;-72
2021/05/27 06:20:42;;;;;;;3.10;1.50;;;15.90;99.90;;;;;;5083379;28;20201;-72
2021/05/27 06:23:09;;;;;;;2.57;1.27;;;15.90;99.90;;;;;;5086692;28;20224;-74
2021/05/27 06:25:37;;;;;;;5.70;1.43;;;15.90;99.90;;;;;;5080451;28;20256;-73
2021/05/27 06:28:04;;;;;;;3.60;1.20;;;15.90;99.90;;;;;;5078855;28;20259;-72
2021/05/27 06:30:31;;;;;;;4.03;1.83;;;16.00;99.90;;;;;;5083415;28;20231;-72
2021/05/27 06:32:58;;;;;;;2.67;1.70;;;16.10;99.90;;;;;;5093639;28;20346;-74
2021/05/27 06:35:25;;;;;;;2.80;1.90;;;16.20;99.90;;;;;;5076843;28;20566;-72
2021/05/27 06:37:51;;;;;;;4.37;1.50;;;16.30;99.90;;;;;;5078160;28;20721;-73
2021/05/27 06:40:21;;;;;;;1.90;1.70;;;16.40;99.90;;;;;;5074763;28;20299;-72
2021/05/27 06:42:48;;;;;;;3.70;1.40;;;16.40;99.90;;;;;;5082510;28;20201;-72
2021/05/27 06:45:16;;;;;;;5.13;1.67;;;16.50;99.90;;;;;;5082576;28;20229;-75
2021/05/27 06:47:42;;;;;;;4.77;2.73;;;16.70;99.90;;;;;;5073881;28;20203;-74
2021/05/27 06:50:10;;;;;;;2.17;1.97;;;16.80;99.70;;;;;;5087715;28;20222;-73
2021/05/27 06:52:36;;;;;;;3.83;1.77;;;16.80;99.60;;;;;;5086463;28;20237;-72
2021/05/27 06:55:04;;;;;;;3.10;1.83;;;16.90;99.40;;;;;;5076337;28;20220;-73
2021/05/27 06:57:31;;;;;;;3.47;1.30;;;17.00;99.10;;;;;;5070399;28;20229;-72
2021/05/27 06:59:58;;;;;;;2.87;1.50;;;16.90;98.60;;;;;;5072561;28;20259;-72
2021/05/27 07:02:24;;;;;;;2.63;1.57;;;17.00;98.70;;;;;;5070662;28;20579;-71
2021/05/27 07:04:51;;;;;;;2.90;1.57;;;17.10;98.40;;;;;;5081281;28;20674;-73
2021/05/27 07:07:18;;;;;;;2.43;1.60;;;17.10;98.10;;;;;;5072423;28;20644;-73
2021/05/27 07:09:44;;;;;;;3.23;1.63;;;17.10;97.80;;;;;;5076516;28;20343;-72
2021/05/27 07:12:11;;;;;;;1.30;1.20;;;17.10;97.40;;;;;;5073151;28;20579;-74
2021/05/27 07:14:39;;;;;;;3.43;1.93;;;17.00;97.40;;;;;;5074583;28;20705;-73
2021/05/27 07:17:05;;;;;;;2.20;1.57;;;17.00;97.60;;;;;;5070178;28;20209;-73
2021/05/27 07:19:32;;;;;;;2.37;1.57;;;17.10;97.70;;;;;;5070033;28;20288;-73
2021/05/27 07:22:00;;;;;;;4.10;1.80;;;17.10;97.60;;;;;;5077115;28;20206;-73
2021/05/27 07:24:27;;;;;;;2.33;1.40;;;17.20;97.60;;;;;;5080536;28;20216;-76
2021/05/27 07:26:54;;;;;;;2.80;1.50;;;17.30;97.20;;;;;;5083913;28;20235;-70
2021/05/27 07:29:20;;;;;;;2.47;1.30;;;17.50;96.90;;;;;;5071253;28;20201;-72
2021/05/27 07:31:47;;;;;;;2.17;1.80;;;17.50;95.90;;;;;;5061826;28;20561;-72
2021/05/27 07:34:14;;;;;;;1.50;1.20;;;17.60;95.30;;;;;;5061026;28;20300;-73
2021/05/27 07:36:40;;;;;;;1.30;1.20;;;17.60;94.80;;;;;;5068644;28;20205;-71
2021/05/27 07:39:06;;;;;;;1.33;1.23;;;17.60;94.20;;;;;;5071807;28;20636;-73
2021/05/27 07:41:33;;;;;;;1.73;1.63;;;17.70;93.90;;;;;;5071324;28;20215;-73
2021/05/27 07:43:59;;;;;;;2.20;1.57;;;17.90;93.50;;;;;;5069384;28;20206;-72
2021/05/27 07:46:26;;;;;;;1.37;1.00;;;18.00;93.20;;;;;;5071648;28;20221;-71
2021/05/27 07:48:54;;;;;;;1.77;1.43;;;18.00;92.90;;;;;;5072942;28;20296;-72
2021/05/27 07:51:21;;;;;;;1.37;1.23;;;17.90;92.80;;;;;;5063987;28;20209;-72
2021/05/27 07:53:47;;;;;;;1.20;1.10;;;17.80;92.80;;;;;;5070380;28;20628;-73
2021/05/27 07:56:14;;;;;;;1.87;1.10;;;17.80;92.20;;;;;;5067590;28;20247;-73
2021/05/27 07:58:40;;;;;;;2.07;1.47;;;17.90;92.00;;;;;;5063153;28;20569;-71
2021/05/27 08:01:07;;;;;;;1.57;1.47;;;18.00;92.10;;;;;;5068432;28;20242;-72
2021/05/27 08:03:34;;;;;;;2.87;1.20;;;18.20;91.60;;;;;;5072063;28;20201;-72
2021/05/27 08:06:01;;;;;;;1.37;1.27;;;18.30;91.10;;;;;;5071572;28;20658;-73
2021/05/27 08:08:27;;;;;;;1.83;1.50;;;18.30;90.90;;;;;;5072767;28;20206;-73
2021/05/27 08:10:54;;;;;;;2.40;1.30;;;18.30;90.10;;;;;;5059509;28;20241;-72
2021/05/27 08:13:20;;;;;;;1.30;1.07;;;18.30;88.60;;;;;;5070535;28;20705;-72
2021/05/27 08:15:46;;;;;;;0.90;0.90;;;18.30;87.30;;;;;;5072023;28;20327;-71
2021/05/27 08:18:13;;;;;;;1.27;1.13;;;18.20;86.00;;;;;;5070826;28;20949;-72
2021/05/27 08:20:39;;;;;;;1.10;1.00;;;18.30;85.50;;;;;;5067643;28;20209;-72
2021/05/27 08:23:06;;;;;;;1.83;1.20;;;18.40;83.90;;;;;;5081020;28;20213;-72
2021/05/27 08:25:33;;;;;;;1.37;1.10;;;18.40;83.40;;;;;;5087441;28;20737;-71
2021/05/27 08:27:59;;;;;;;1.17;1.07;;;18.40;83.50;;;;;;5086335;28;20299;-72
2021/05/27 08:30:26;;;;;;;1.20;1.10;;;18.60;83.80;;;;;;5084929;28;20664;-72
2021/05/27 08:32:53;;;;;;;1.53;1.10;;;18.70;82.10;;;;;;5072820;28;20732;-73
2021/05/27 08:35:20;;;;;;;1.27;0.90;;;18.70;81.40;;;;;;5084070;28;20279;-72
2021/05/27 08:37:47;;;;;;;1.20;1.07;;;18.80;81.00;;;;;;5081936;28;20649;-73
2021/05/27 08:40:15;;;;;;;3.77;2.17;;;18.90;79.30;;;;;;5085678;28;20661;-72
2021/05/27 08:42:43;;;;;;;2.23;1.40;;;19.00;77.60;;;;;;5084178;28;20283;-73
2021/05/27 08:45:11;;;;;;;3.20;1.00;;;19.10;76.60;;;;;;5082948;28;20696;-75
2021/05/27 08:47:39;;;;;;;1.40;1.20;;;19.20;76.10;;;;;;5077446;28;20210;-73
2021/05/27 08:50:06;;;;;;;1.47;1.13;;;19.30;75.30;;;;;;5078147;28;20247;-72
2021/05/27 08:52:33;;;;;;;2.97;1.08;;;19.30;74.90;;;;;;5079722;28;20211;-73
2021/05/27 08:55:01;;;;;;;1.30;1.10;;;19.30;74.20;;;;;;5076934;28;20296;-73
2021/05/27 08:57:28;;;;;;;1.97;0.80;;;19.30;73.30;;;;;;5089908;28;20257;-73
2021/05/27 08:59:55;;;;;;;1.07;1.07;;;19.20;71.90;;;;;;5086874;28;20245;-72
2021/05/27 09:02:21;;;;;;;1.70;1.10;;;19.00;71.70;;;;;;5083498;28;20204;-72
2021/05/27 09:04:48;;;;;;;2.08;0.95;;;18.90;71.70;;;;;;5088528;28;20235;-73
2021/05/27 09:07:14;;;;;;;2.55;1.00;;;19.00;71.40;;;;;;5077013;28;20208;-74
2021/05/27 09:09:55;;;;;;;1.05;0.93;;;19.30;70.30;;;;;;5077065;28;20207;-71
2021/05/27 09:12:30;;;;;;;2.33;0.90;;;19.50;69.20;;;;;;5087540;28;20212;-72
2021/05/27 09:14:57;;;;;;;1.05;0.95;;;19.80;68.30;;;;;;5080824;28;20640;-69
2021/05/27 09:17:23;;;;;;;1.40;0.85;;;20.00;66.90;;;;;;5085028;28;20220;-69
2021/05/27 09:20:12;;;;;;;1.45;0.85;;;20.10;65.60;;;;;;5075248;28;20220;-69
2021/05/27 09:22:39;;;;;;;1.73;0.70;;;20.20;64.60;;;;;;5075258;28;20319;-69
2021/05/27 09:25:07;;;;;;;0.77;0.77;;;20.10;63.80;;;;;;5079869;28;20313;-69
2021/05/27 09:27:48;;;;;;;1.77;1.15;;;20.10;63.70;;;;;;5077759;28;20239;-69
2021/05/27 09:30:16;;;;;;;0.80;0.80;;;19.80;63.90;;;;;;5076802;28;20201;-70
2021/05/27 09:32:46;;;;;;;1.02;0.93;;;19.70;63.90;;;;;;5074485;28;20213;-69
2021/05/27 09:35:14;;;;;;;1.25;0.80;;;19.50;64.60;;;;;;5072067;28;20201;-71
2021/05/27 09:37:47;;;;;;;1.80;0.95;;;19.50;65.80;;;;;;5077711;28;20293;-70
2021/05/27 09:40:29;;;;;;;0.75;0.65;;;19.50;66.30;;;;;;5075436;28;20213;-69
2021/05/27 09:42:57;;;;;;;0.80;0.80;;;19.50;65.10;;;;;;5075939;28;20264;-69
2021/05/27 09:45:24;;;;;;;1.27;0.85;;;19.70;64.70;;;;;;5077241;28;20224;-70
2021/05/27 09:47:51;;;;;;;1.65;1.00;;;19.80;63.90;;;;;;5078418;28;20212;-68
2021/05/27 09:50:17;;;;;;;3.80;1.00;;;19.90;64.10;;;;;;5079731;28;20295;-69
2021/05/27 09:52:45;;;;;;;1.35;0.98;;;20.00;64.20;;;;;;5079094;28;20197;-69
2021/05/27 09:55:13;;;;;;;1.02;0.90;;;20.10;63.80;;;;;;5078210;28;20201;-71
2021/05/27 09:57:41;;;;;;;1.50;1.13;;;20.00;62.50;;;;;;5074693;28;20645;-70
2021/05/27 10:00:26;;;;;;;1.73;1.35;;;20.10;63.40;;;;;;5077607;28;20216;-72
2021/05/27 10:02:53;;;;;;;0.73;0.70;;;20.40;62.40;;;;;;5075499;28;20243;-73
2021/05/27 10:05:20;;;;;;;1.05;0.80;;;20.60;61.50;;;;;;5088258;28;20998;-70
2021/05/27 10:07:49;;;;;;;0.80;0.57;;;20.80;60.00;;;;;;5074076;28;20209;-70
2021/05/27 10:10:20;;;;;;;0.80;0.80;;;20.90;59.80;;;;;;5077426;28;20212;-71
2021/05/27 10:12:50;;;;;;;2.03;1.08;;;20.70;60.20;;;;;;5072736;28;20590;-69
2021/05/27 10:15:20;;;;;;;2.88;0.85;;;20.50;60.80;;;;;;5077278;28;20224;-69
2021/05/27 10:17:46;;;;;;;1.92;0.90;;;20.50;61.10;;;;;;5074777;28;20254;-69
2021/05/27 10:20:16;;;;;;;1.10;1.02;;;20.50;60.60;;;;;;5077748;28;20293;-69
2021/05/27 10:22:43;;;;;;;0.80;0.60;;;20.70;60.10;;;;;;5078789;28;20197;-68
2021/05/27 10:25:13;;;;;;;3.25;1.08;;;21.10;59.10;;;;;;5075391;28;20229;-70
2021/05/27 10:27:41;;;;;;;2.00;0.82;;;21.20;57.90;;;;;;5075405;28;20224;-69
2021/05/27 10:30:09;;;;;;;0.77;0.75;;;21.20;57.30;;;;;;5077792;28;20217;-68
2021/05/27 10:32:42;;;;;;;0.80;0.80;;;21.20;56.80;;;;;;5089585;28;20204;-68
2021/05/27 10:35:09;;;;;;;4.85;1.00;;;21.10;57.50;;;;;;5078549;28;20624;-68
2021/05/27 10:37:49;;;;;;;2.38;0.85;;;21.00;57.40;;;;;;5078816;28;20209;-68
2021/05/27 10:40:41;;;;;;;1.00;0.70;;;20.80;57.50;;;;;;5086330;28;20287;-69
2021/05/27 10:43:10;;;;;;;1.20;0.90;;;20.60;57.90;;;;;;5077505;28;20216;-68
2021/05/27 10:46:03;;;;;;;1.98;1.75;;;20.30;58.50;;;;;;5085749;28;20221;-68
2021/05/27 10:48:32;;;;;;;1.00;0.98;;;20.20;59.90;;;;;;5072637;28;20232;-68
2021/05/27 10:51:09;;;;;;;1.08;0.77;;;20.40;60.00;;;;;;5072321;28;20245;-68
2021/05/27 10:53:51;;;;;;;1.10;1.00;;;20.60;59.80;;;;;;5075743;28;20557;-69
2021/05/27 10:56:22;;;;;;;1.65;1.05;;;20.70;59.40;;;;;;5067831;28;20236;-70
2021/05/27 10:59:11;;;;;;;1.20;1.05;;;21.00;59.90;;;;;;5071643;28;20217;-69
2021/05/27 11:01:57;;;;;;;1.40;1.30;;;21.40;60.00;;;;;;5079147;28;20212;-68
2021/05/27 11:04:34;;;;;;;2.30;1.58;;;21.70;59.30;;;;;;5075537;28;20215;-69
2021/05/27 11:07:24;;;;;;;1.30;1.20;;;21.70;58.90;;;;;;5080475;28;20212;-70
2021/05/27 11:09:52;;;;;;;1.80;1.55;;;21.70;58.90;;;;;;5076474;28;20669;-70
2021/05/27 11:12:30;;;;;;;2.83;1.40;;;21.50;58.60;;;;;;5082397;28;20204;-69
2021/05/27 11:15:11;;;;;;;1.83;1.30;;;21.30;59.00;;;;;;5085586;28;20212;-68
2021/05/27 11:17:38;;;;;;;2.15;1.40;;;21.10;57.80;;;;;;5070845;28;20205;-68
2021/05/27 11:20:09;;;;;;;1.70;1.00;;;20.80;57.60;;;;;;5079795;28;20205;-67
2021/05/27 11:22:47;;;;;;;3.70;1.17;;;20.60;57.80;;;;;;5075334;28;20719;-69
2021/05/27 11:25:36;;;;;;;1.60;1.50;;;20.70;58.30;;;;;;5071662;28;20233;-68
2021/05/27 11:28:27;;;;;;;1.73;0.85;;;20.80;57.70;;;;;;5071126;28;20244;-69
2021/05/27 11:30:56;;;;;;;1.77;1.20;;;20.80;57.50;;;;;;5079547;28;20270;-69
2021/05/27 11:33:30;;;;;;;2.30;1.17;;;20.70;57.30;;;;;;5078687;28;20221;-69
2021/05/27 11:35:59;;;;;;;2.30;1.27;;;20.80;57.70;;;;;;5074804;28;20541;-69
2021/05/27 11:38:27;;;;;;;2.70;1.63;;;21.00;57.70;;;;;;5071636;28;20217;-69
2021/05/27 11:40:57;;;;;;;3.25;0.98;;;21.00;57.10;;;;;;5071951;28;20619;-68
2021/05/27 11:43:28;;;;;;;1.95;1.20;;;20.90;56.50;;;;;;5078882;28;20255;-67
2021/05/27 11:45:55;;;;;;;1.98;1.00;;;20.90;56.50;;;;;;5086731;28;20303;-67
2021/05/27 11:48:27;;;;;;;1.30;1.20;;;21.10;56.30;;;;;;5086207;28;20201;-68
2021/05/27 11:51:01;;;;;;;2.35;1.30;;;21.30;55.50;;;;;;5073363;28;20284;-65
2021/05/27 11:53:27;;;;;;;2.55;1.10;;;21.40;55.30;;;;;;5075272;28;20207;-68
2021/05/27 11:55:55;;;;;;;0.98;0.75;;;21.50;55.00;;;;;;5079466;28;20778;-68
2021/05/27 11:58:35;;;;;;;2.50;1.05;;;21.40;54.70;;;;;;5077373;28;20225;-68
2021/05/27 12:01:20;;;;;;;1.27;1.20;;;21.40;54.80;;;;;;5067159;28;20280;-69
2021/05/27 12:04:15;;;;;;;1.13;1.08;;;21.40;55.50;;;;;;5075332;28;20198;-68
2021/05/27 12:07:11;;;;;;;1.63;1.00;;;21.50;56.00;;;;;;5080567;28;20220;-67
2021/05/27 12:09:39;;;;;;;2.35;1.23;;;21.70;55.60;;;;;;5087400;28;20658;-68
2021/05/27 12:12:15;;;;;;;1.33;1.20;;;21.70;55.20;;;;;;5080853;28;20292;-69
2021/05/27 12:14:45;;;;;;;5.55;1.75;;;21.70;54.70;;;;;;5072571;28;20303;-69
2021/05/27 12:17:19;;;;;;;1.15;1.02;;;21.70;55.20;;;;;;5078674;28;20296;-68
2021/05/27 12:19:50;;;;;;;1.98;1.17;;;22.00;54.90;;;;;;5084801;28;20230;-67
2021/05/27 12:22:17;;;;;;;1.33;1.10;;;22.20;54.50;;;;;;5072431;28;20642;-69
2021/05/27 12:24:44;;;;;;;2.25;0.93;;;22.40;54.20;;;;;;5071242;28;20219;-69
2021/05/27 12:27:11;;;;;;;2.05;1.40;;;22.50;53.90;;;;;;5074470;28;20300;-69
2021/05/27 12:29:39;;;;;;;1.75;1.20;;;22.70;53.80;;;;;;5071345;28;20839;-67
2021/05/27 12:32:08;;;;;;;2.95;1.10;;;22.80;52.90;;;;;;5075546;28;20204;-69
2021/05/27 12:34:38;;;;;;;1.23;1.00;;;22.60;52.00;;;;;;5076496;28;20211;-68
2021/05/27 12:37:06;;;;;;;1.60;1.40;;;22.50;52.00;;;;;;5076292;28;20203;-68
2021/05/27 12:39:36;;;;;;;1.40;1.10;;;22.50;52.00;;;;;;5083126;28;20211;-68
2021/05/27 12:42:05;;;;;;;1.75;1.17;;;22.60;51.20;;;;;;5068070;28;20240;-70
2021/05/27 12:44:40;;;;;;;2.45;1.52;;;22.80;51.20;;;;;;5068785;28;20233;-68
2021/05/27 12:47:14;;;;;;;1.20;1.10;;;22.90;50.50;;;;;;5079066;28;20212;-69
2021/05/27 12:49:41;;;;;;;0.93;0.80;;;23.10;50.50;;;;;;5085315;28;20222;-70
2021/05/27 12:52:08;;;;;;;2.67;1.02;;;23.40;50.30;;;;;;5076797;28;20980;-69
2021/05/27 12:54:35;;;;;;;1.83;1.23;;;23.50;49.70;;;;;;5076679;28;20200;-69
2021/05/27 12:57:04;;;;;;;1.85;1.15;;;23.50;50.00;;;;;;5077229;28;20232;-66
2021/05/27 12:59:31;;;;;;;2.67;1.30;;;23.50;49.90;;;;;;5085795;28;20204;-70
2021/05/27 13:02:00;;;;;;;2.25;1.80;;;23.50;49.50;;;;;;5071321;28;20267;-69
2021/05/27 13:04:36;;;;;;;1.33;1.17;;;23.30;49.70;;;;;;5089987;28;20205;-68
2021/05/27 13:07:11;;;;;;;1.73;1.20;;;23.20;49.30;;;;;;5082330;28;20257;-69